Time;durP1;ratioP1;P1;durP2;ratioP2;P2;SDS_P1;SDS_P2;PMS_P1;PMS_P2;Temp;Humidity;BMP_temperature;BMP_pressure;BME280_temperature;BME280_humidity;BME280_pressure;Samples;Min_cycle;Max_cycle;Signal;HPM_P1;HPM_P2
2022/10/23 00:00:40;;;;;;;;;;;24.40;44.50;;;;;;492295;242;1151;-72
2022/10/23 00:02:41;;;;;;;;;;;24.40;44.40;;;;;;492213;242;1114;-71
2022/10/23 00:04:43;;;;;;;;;;;24.40;44.40;;;;;;492201;242;2167;-71
2022/10/23 00:06:44;;;;;;;;;;;24.40;44.40;;;;;;492273;242;1297;-72
2022/10/23 00:08:45;;;;;;;;;;;24.30;44.40;;;;;;492217;242;1158;-71
2022/10/23 00:10:47;;;;;;;;;;;24.40;44.40;;;;;;492247;242;1123;-72
2022/10/23 00:12:48;;;;;;;;;;;24.40;44.40;;;;;;492237;242;1101;-71
2022/10/23 00:14:49;;;;;;;;;;;24.30;44.40;;;;;;492201;242;1126;-71
2022/10/23 00:16:51;;;;;;;;;;;24.40;44.40;;;;;;492239;242;1115;-71
2022/10/23 00:18:52;;;;;;;;;;;24.40;44.40;;;;;;492233;242;1336;-71
2022/10/23 00:20:53;;;;;;;;;;;24.30;44.30;;;;;;492173;242;1144;-72
2022/10/23 00:22:55;;;;;;;;;;;24.30;44.30;;;;;;492182;242;1173;-71
2022/10/23 00:24:56;;;;;;;;;;;24.30;44.30;;;;;;492173;242;2179;-71
2022/10/23 00:26:57;;;;;;;;;;;24.30;44.30;;;;;;492245;242;1336;-71
2022/10/23 00:28:59;;;;;;;;;;;24.30;44.30;;;;;;492231;242;1351;-71
2022/10/23 00:31:00;;;;;;;;;;;24.40;44.30;;;;;;492160;242;1139;-71
2022/10/23 00:33:01;;;;;;;;;;;24.40;44.20;;;;;;492220;242;1326;-71
2022/10/23 00:35:03;;;;;;;;;;;24.30;44.20;;;;;;492309;242;1163;-71
2022/10/23 00:37:04;;;;;;;;;;;24.30;44.30;;;;;;492172;242;1215;-71
2022/10/23 00:39:05;;;;;;;;;;;24.30;44.30;;;;;;492331;242;1228;-72
2022/10/23 00:41:07;;;;;;;;;;;24.30;44.20;;;;;;492232;242;1179;-71
2022/10/23 00:43:08;;;;;;;;;;;24.30;44.20;;;;;;492224;242;1179;-71
2022/10/23 00:45:09;;;;;;;;;;;24.40;44.20;;;;;;492252;242;2161;-71
2022/10/23 00:47:11;;;;;;;;;;;24.30;44.20;;;;;;492169;242;1193;-71
2022/10/23 00:49:12;;;;;;;;;;;24.40;44.20;;;;;;492263;242;1119;-71
2022/10/23 00:51:13;;;;;;;;;;;24.30;44.10;;;;;;492161;242;1188;-72
2022/10/23 00:53:15;;;;;;;;;;;24.30;44.20;;;;;;492268;242;1187;-71
2022/10/23 00:55:16;;;;;;;;;;;24.30;44.10;;;;;;492213;242;1158;-71
2022/10/23 00:57:17;;;;;;;;;;;24.30;44.10;;;;;;492350;242;1219;-71
2022/10/23 00:59:19;;;;;;;;;;;24.30;44.20;;;;;;492237;242;1135;-71
2022/10/23 01:01:20;;;;;;;;;;;24.30;44.20;;;;;;492189;242;1145;-71
2022/10/23 01:03:21;;;;;;;;;;;24.20;44.20;;;;;;492220;242;1208;-71
2022/10/23 01:05:23;;;;;;;;;;;24.20;44.20;;;;;;492193;242;2148;-71
2022/10/23 01:07:24;;;;;;;;;;;24.20;44.20;;;;;;492186;242;1147;-71
2022/10/23 01:09:25;;;;;;;;;;;24.20;44.10;;;;;;492239;242;1216;-71
2022/10/23 01:11:27;;;;;;;;;;;24.30;44.10;;;;;;492181;242;1164;-71
2022/10/23 01:13:28;;;;;;;;;;;24.40;44.00;;;;;;492238;242;1098;-72
2022/10/23 01:15:29;;;;;;;;;;;24.30;43.90;;;;;;492263;242;1158;-71
2022/10/23 01:17:31;;;;;;;;;;;24.30;43.90;;;;;;492161;242;1317;-72
2022/10/23 01:19:32;;;;;;;;;;;24.20;44.00;;;;;;492193;242;1227;-71
2022/10/23 01:21:33;;;;;;;;;;;24.20;44.00;;;;;;492064;242;1157;-72
2022/10/23 01:23:35;;;;;;;;;;;24.20;44.00;;;;;;492120;242;1335;-71
2022/10/23 01:25:36;;;;;;;;;;;24.30;44.00;;;;;;492141;242;2192;-71
2022/10/23 01:27:37;;;;;;;;;;;24.20;44.00;;;;;;492159;242;1163;-71
2022/10/23 01:29:39;;;;;;;;;;;24.20;44.00;;;;;;492177;242;1323;-71
2022/10/23 01:31:40;;;;;;;;;;;24.20;44.00;;;;;;492146;242;1182;-71
2022/10/23 01:33:41;;;;;;;;;;;24.20;44.10;;;;;;492165;242;1317;-71
2022/10/23 01:35:43;;;;;;;;;;;24.10;44.10;;;;;;492159;242;1190;-71
2022/10/23 01:37:44;;;;;;;;;;;24.10;44.00;;;;;;492121;242;1145;-71
2022/10/23 01:39:45;;;;;;;;;;;24.20;44.00;;;;;;492224;242;1260;-72
2022/10/23 01:41:47;;;;;;;;;;;24.20;43.90;;;;;;492193;242;1173;-71
2022/10/23 01:43:48;;;;;;;;;;;24.10;44.10;;;;;;492159;242;1198;-71
2022/10/23 01:45:50;;;;;;;;;;;24.10;44.10;;;;;;492201;242;2187;-71
2022/10/23 01:47:51;;;;;;;;;;;24.10;44.00;;;;;;492166;242;1157;-71
2022/10/23 01:49:53;;;;;;;;;;;24.10;44.00;;;;;;492191;242;1158;-71
2022/10/23 01:51:54;;;;;;;;;;;24.10;44.10;;;;;;491993;242;1208;-71
2022/10/23 01:53:55;;;;;;;;;;;24.10;44.00;;;;;;492187;242;1132;-71
2022/10/23 01:55:56;;;;;;;;;;;24.00;44.00;;;;;;492040;242;1448;-71
2022/10/23 01:57:58;;;;;;;;;;;24.00;44.10;;;;;;492150;242;1090;-71
2022/10/23 01:59:59;;;;;;;;;;;23.90;44.20;;;;;;492238;242;1287;-71
2022/10/23 02:02:00;;;;;;;;;;;23.90;44.20;;;;;;491994;242;1156;-71
2022/10/23 02:04:02;;;;;;;;;;;23.90;44.20;;;;;;492179;242;1125;-71
2022/10/23 02:06:03;;;;;;;;;;;23.80;44.20;;;;;;492065;242;2116;-71
2022/10/23 02:08:04;;;;;;;;;;;23.80;44.20;;;;;;492125;242;1185;-71
2022/10/23 02:10:06;;;;;;;;;;;23.80;44.30;;;;;;492216;242;1128;-71
2022/10/23 02:12:07;;;;;;;;;;;23.90;44.20;;;;;;492059;242;1166;-71
2022/10/23 02:14:09;;;;;;;;;;;23.90;44.10;;;;;;492201;242;1203;-71
2022/10/23 02:16:10;;;;;;;;;;;23.90;44.20;;;;;;492200;242;1171;-71
2022/10/23 02:18:12;;;;;;;;;;;23.90;44.10;;;;;;492189;242;1191;-71
2022/10/23 02:20:13;;;;;;;;;;;23.90;44.00;;;;;;492151;242;1181;-71
2022/10/23 02:22:14;;;;;;;;;;;23.90;44.00;;;;;;492115;242;1289;-71
2022/10/23 02:24:15;;;;;;;;;;;24.00;43.90;;;;;;492120;242;2164;-71
2022/10/23 02:26:17;;;;;;;;;;;24.00;43.80;;;;;;492220;242;1136;-71
2022/10/23 02:28:18;;;;;;;;;;;24.00;43.60;;;;;;492179;242;1292;-71
2022/10/23 02:30:20;;;;;;;;;;;24.10;43.50;;;;;;492173;242;1247;-71
2022/10/23 02:32:21;;;;;;;;;;;24.10;43.30;;;;;;492175;242;1223;-71
2022/10/23 02:34:22;;;;;;;;;;;24.10;43.40;;;;;;492193;242;1218;-71
2022/10/23 02:36:23;;;;;;;;;;;24.10;43.40;;;;;;492155;242;1183;-71
2022/10/23 02:38:25;;;;;;;;;;;24.10;43.40;;;;;;492161;242;1161;-72
2022/10/23 02:40:26;;;;;;;;;;;24.10;43.30;;;;;;492154;242;1177;-71
2022/10/23 02:42:27;;;;;;;;;;;24.20;43.20;;;;;;492175;242;1202;-71
2022/10/23 02:44:29;;;;;;;;;;;24.20;43.10;;;;;;492109;242;2192;-71
2022/10/23 02:46:30;;;;;;;;;;;24.20;43.10;;;;;;492214;242;1224;-72
2022/10/23 02:48:31;;;;;;;;;;;24.30;43.00;;;;;;492129;242;1192;-71
2022/10/23 02:50:33;;;;;;;;;;;24.30;42.70;;;;;;492177;242;1186;-71
2022/10/23 02:52:34;;;;;;;;;;;24.40;42.70;;;;;;492078;242;1229;-71
2022/10/23 02:54:36;;;;;;;;;;;24.40;42.60;;;;;;492115;242;1195;-71
2022/10/23 02:56:37;;;;;;;;;;;24.30;42.60;;;;;;492164;242;1292;-71
2022/10/23 02:58:38;;;;;;;;;;;24.40;42.50;;;;;;492205;242;1151;-71
2022/10/23 03:00:39;;;;;;;;;;;24.40;42.50;;;;;;492157;242;1223;-71
2022/10/23 03:02:41;;;;;;;;;;;24.40;42.40;;;;;;492182;242;1215;-71
2022/10/23 03:04:42;;;;;;;;;;;24.50;42.30;;;;;;492157;242;2199;-71
2022/10/23 03:06:43;;;;;;;;;;;24.50;42.20;;;;;;492171;242;1132;-71
2022/10/23 03:08:45;;;;;;;;;;;24.50;42.20;;;;;;492227;242;1180;-71
2022/10/23 03:10:46;;;;;;;;;;;24.40;42.20;;;;;;492170;242;1170;-71
2022/10/23 03:12:48;;;;;;;;;;;24.40;42.10;;;;;;492329;242;1146;-71
2022/10/23 03:14:49;;;;;;;;;;;24.40;42.20;;;;;;492240;242;1183;-71
2022/10/23 03:16:50;;;;;;;;;;;24.40;42.10;;;;;;492202;242;1205;-71
2022/10/23 03:18:52;;;;;;;;;;;24.40;42.10;;;;;;492205;242;1141;-71
2022/10/23 03:20:53;;;;;;;;;;;24.40;42.00;;;;;;492231;242;1093;-71
2022/10/23 03:22:55;;;;;;;;;;;24.40;42.00;;;;;;492136;242;1179;-74
2022/10/23 03:24:56;;;;;;;;;;;24.40;41.90;;;;;;492258;242;2196;-74
2022/10/23 03:26:57;;;;;;;;;;;24.40;41.90;;;;;;492129;242;1132;-74
2022/10/23 03:28:59;;;;;;;;;;;24.40;41.90;;;;;;492191;242;1267;-74
2022/10/23 03:31:01;;;;;;;;;;;24.40;41.80;;;;;;492093;242;1209;-74
2022/10/23 03:33:02;;;;;;;;;;;24.40;41.90;;;;;;492113;242;1330;-74
2022/10/23 03:35:03;;;;;;;;;;;24.40;41.80;;;;;;492213;242;1315;-74
2022/10/23 03:37:04;;;;;;;;;;;24.40;41.90;;;;;;491961;242;1249;-74
2022/10/23 03:39:06;;;;;;;;;;;24.30;41.90;;;;;;492225;242;1161;-74
2022/10/23 03:41:07;;;;;;;;;;;24.30;41.90;;;;;;492043;242;1181;-74
2022/10/23 03:43:08;;;;;;;;;;;24.30;41.90;;;;;;492153;242;1131;-74
2022/10/23 03:45:10;;;;;;;;;;;24.30;41.90;;;;;;492144;242;2144;-74
2022/10/23 03:47:11;;;;;;;;;;;24.30;42.00;;;;;;492031;242;1138;-74
2022/10/23 03:49:12;;;;;;;;;;;24.30;42.00;;;;;;492169;242;1096;-74
2022/10/23 03:51:14;;;;;;;;;;;24.40;42.00;;;;;;492110;242;1155;-74
2022/10/23 03:53:15;;;;;;;;;;;24.40;41.90;;;;;;492132;242;1171;-74
2022/10/23 03:55:16;;;;;;;;;;;24.50;41.80;;;;;;492113;242;1173;-74
2022/10/23 03:57:18;;;;;;;;;;;24.50;41.80;;;;;;492157;242;1260;-74
2022/10/23 03:59:19;;;;;;;;;;;24.40;41.70;;;;;;492143;242;1222;-74
2022/10/23 04:01:20;;;;;;;;;;;24.50;41.80;;;;;;492192;242;1181;-74
2022/10/23 04:03:22;;;;;;;;;;;24.50;41.70;;;;;;492204;242;1137;-74
2022/10/23 04:05:23;;;;;;;;;;;24.60;41.60;;;;;;492196;242;2184;-74
2022/10/23 04:07:24;;;;;;;;;;;24.60;41.40;;;;;;492120;242;1212;-74
2022/10/23 04:09:26;;;;;;;;;;;24.70;41.40;;;;;;492213;242;1254;-74
2022/10/23 04:11:27;;;;;;;;;;;24.80;41.30;;;;;;492161;242;1376;-74
2022/10/23 04:13:28;;;;;;;;;;;24.80;41.20;;;;;;492166;242;1148;-74
2022/10/23 04:15:30;;;;;;;;;;;24.70;41.20;;;;;;492231;242;1174;-74
2022/10/23 04:17:31;;;;;;;;;;;24.80;41.30;;;;;;492148;242;1233;-74
2022/10/23 04:19:32;;;;;;;;;;;24.70;41.20;;;;;;492278;242;1164;-74
2022/10/23 04:21:33;;;;;;;;;;;24.70;41.30;;;;;;492171;242;1207;-74
2022/10/23 04:23:35;;;;;;;;;;;24.60;41.30;;;;;;492104;242;1109;-74
2022/10/23 04:25:36;;;;;;;;;;;24.50;41.30;;;;;;492200;242;2172;-74
2022/10/23 04:27:37;;;;;;;;;;;24.50;41.40;;;;;;492171;242;1412;-74
2022/10/23 04:29:39;;;;;;;;;;;24.50;41.50;;;;;;492165;242;1131;-74
2022/10/23 04:31:40;;;;;;;;;;;24.40;41.50;;;;;;492048;242;1202;-74
2022/10/23 04:33:41;;;;;;;;;;;24.40;41.50;;;;;;492151;242;1215;-74
2022/10/23 04:35:43;;;;;;;;;;;24.30;41.60;;;;;;492120;242;1188;-74
2022/10/23 04:37:44;;;;;;;;;;;24.20;41.60;;;;;;492004;242;1156;-74
2022/10/23 04:39:45;;;;;;;;;;;24.20;41.70;;;;;;492168;242;1150;-74
2022/10/23 04:41:47;;;;;;;;;;;24.20;41.70;;;;;;491965;242;1207;-74
2022/10/23 04:43:48;;;;;;;;;;;24.10;41.70;;;;;;492137;242;1245;-74
2022/10/23 04:45:49;;;;;;;;;;;24.20;41.60;;;;;;492115;242;2156;-74
2022/10/23 04:47:52;;;;;;;;;;;24.10;41.70;;;;;;492061;242;1392;-74
2022/10/23 04:49:53;;;;;;;;;;;24.10;41.70;;;;;;492160;242;1272;-74
2022/10/23 04:51:54;;;;;;;;;;;24.10;41.70;;;;;;492118;242;1144;-74
2022/10/23 04:53:55;;;;;;;;;;;24.00;41.70;;;;;;492117;242;1163;-74
2022/10/23 04:55:57;;;;;;;;;;;24.00;41.80;;;;;;492183;242;1353;-74
2022/10/23 04:57:58;;;;;;;;;;;24.00;41.90;;;;;;492165;242;1110;-74
2022/10/23 04:59:59;;;;;;;;;;;24.00;41.80;;;;;;492136;242;1192;-74
2022/10/23 05:02:01;;;;;;;;;;;24.00;41.80;;;;;;492179;242;1315;-74
2022/10/23 05:04:02;;;;;;;;;;;23.90;41.90;;;;;;492089;242;1154;-74
2022/10/23 05:06:03;;;;;;;;;;;23.90;42.00;;;;;;492223;242;2187;-74
2022/10/23 05:08:04;;;;;;;;;;;23.90;41.90;;;;;;492205;242;1232;-74
2022/10/23 05:10:06;;;;;;;;;;;24.00;41.80;;;;;;492106;242;1321;-74
2022/10/23 05:12:07;;;;;;;;;;;23.90;41.80;;;;;;492159;242;1223;-74
2022/10/23 05:14:08;;;;;;;;;;;23.90;41.80;;;;;;492136;242;1209;-74
2022/10/23 05:16:10;;;;;;;;;;;23.90;41.70;;;;;;492125;242;1178;-74
2022/10/23 05:18:11;;;;;;;;;;;23.90;41.80;;;;;;492157;242;1175;-74
2022/10/23 05:20:12;;;;;;;;;;;23.90;41.80;;;;;;492122;242;1284;-74
2022/10/23 05:22:14;;;;;;;;;;;23.90;41.90;;;;;;492171;242;1128;-74
2022/10/23 05:24:15;;;;;;;;;;;23.90;41.80;;;;;;492124;242;1203;-74
2022/10/23 05:26:16;;;;;;;;;;;23.90;41.70;;;;;;492157;242;2207;-74
2022/10/23 05:28:18;;;;;;;;;;;23.90;41.70;;;;;;492206;242;1167;-74
2022/10/23 05:30:19;;;;;;;;;;;23.90;41.70;;;;;;492128;242;1160;-74
2022/10/23 05:32:20;;;;;;;;;;;23.90;41.60;;;;;;492170;242;1105;-74
2022/10/23 05:34:22;;;;;;;;;;;24.00;41.60;;;;;;492124;242;1410;-74
2022/10/23 05:36:23;;;;;;;;;;;23.90;41.60;;;;;;492119;242;1203;-74
2022/10/23 05:38:24;;;;;;;;;;;24.00;41.40;;;;;;492111;242;1218;-74
2022/10/23 05:40:26;;;;;;;;;;;23.90;41.50;;;;;;492118;242;1196;-74
2022/10/23 05:42:27;;;;;;;;;;;23.90;41.50;;;;;;492145;242;1153;-74
2022/10/23 05:44:28;;;;;;;;;;;24.00;41.40;;;;;;492174;242;1237;-74
2022/10/23 05:46:30;;;;;;;;;;;24.10;41.30;;;;;;492091;242;2200;-74
2022/10/23 05:48:31;;;;;;;;;;;24.10;41.10;;;;;;492118;242;1195;-74
2022/10/23 05:50:32;;;;;;;;;;;24.10;41.10;;;;;;492130;242;1219;-74
2022/10/23 05:52:34;;;;;;;;;;;24.20;41.00;;;;;;491947;242;1262;-74
2022/10/23 05:54:35;;;;;;;;;;;24.20;40.80;;;;;;492141;242;1182;-74
2022/10/23 05:56:36;;;;;;;;;;;24.20;40.80;;;;;;491922;242;1194;-74
2022/10/23 05:58:38;;;;;;;;;;;24.20;40.90;;;;;;492172;242;1214;-74
2022/10/23 06:00:39;;;;;;;;;;;24.10;40.80;;;;;;492062;242;1205;-74
2022/10/23 06:02:40;;;;;;;;;;;24.10;40.90;;;;;;491981;242;1163;-74
2022/10/23 06:04:42;;;;;;;;;;;24.10;41.00;;;;;;492170;242;1465;-74
2022/10/23 06:06:43;;;;;;;;;;;24.00;41.00;;;;;;491928;242;2153;-74
2022/10/23 06:08:44;;;;;;;;;;;23.90;41.20;;;;;;492212;242;1183;-74
2022/10/23 06:10:45;;;;;;;;;;;23.90;41.20;;;;;;492120;242;1192;-74
2022/10/23 06:12:47;;;;;;;;;;;23.90;41.30;;;;;;492220;242;1156;-74
2022/10/23 06:14:48;;;;;;;;;;;23.90;41.10;;;;;;492160;242;1097;-74
2022/10/23 06:16:49;;;;;;;;;;;23.90;41.20;;;;;;492108;242;1281;-74
2022/10/23 06:18:51;;;;;;;;;;;24.00;41.10;;;;;;492131;242;1215;-74
2022/10/23 06:20:52;;;;;;;;;;;24.00;41.00;;;;;;492138;242;1169;-74
2022/10/23 06:22:53;;;;;;;;;;;24.00;41.00;;;;;;492111;242;1177;-74
2022/10/23 06:24:55;;;;;;;;;;;24.00;41.00;;;;;;492141;242;1121;-74
2022/10/23 06:26:56;;;;;;;;;;;23.90;41.00;;;;;;492129;242;2187;-74
2022/10/23 06:28:57;;;;;;;;;;;24.00;41.00;;;;;;492158;242;1291;-74
2022/10/23 06:30:59;;;;;;;;;;;24.00;40.90;;;;;;492151;242;1336;-74
2022/10/23 06:33:00;;;;;;;;;;;24.00;40.90;;;;;;492077;242;1182;-74
2022/10/23 06:35:01;;;;;;;;;;;24.00;40.80;;;;;;492160;242;1219;-74
2022/10/23 06:37:03;;;;;;;;;;;24.10;40.70;;;;;;492096;242;1198;-74
2022/10/23 06:39:04;;;;;;;;;;;24.10;40.70;;;;;;492109;242;1210;-74
2022/10/23 06:41:05;;;;;;;;;;;24.10;40.60;;;;;;492136;242;1210;-74
2022/10/23 06:43:07;;;;;;;;;;;24.10;40.70;;;;;;492120;242;1187;-74
2022/10/23 06:45:08;;;;;;;;;;;24.10;40.70;;;;;;492126;242;1243;-74
2022/10/23 06:47:11;;;;;;;;;;;24.00;40.70;;;;;;492143;242;2168;-74
2022/10/23 06:49:11;;;;;;;;;;;24.10;40.70;;;;;;492057;242;1436;-74
2022/10/23 06:51:12;;;;;;;;;;;24.00;40.70;;;;;;492101;242;1480;-74
2022/10/23 06:53:13;;;;;;;;;;;24.00;40.70;;;;;;492086;242;1159;-74
2022/10/23 06:55:15;;;;;;;;;;;24.00;40.80;;;;;;492127;242;1223;-74
2022/10/23 06:57:16;;;;;;;;;;;24.00;40.80;;;;;;492192;242;1232;-74
2022/10/23 06:59:18;;;;;;;;;;;24.00;40.90;;;;;;492071;242;1192;-74
2022/10/23 07:01:19;;;;;;;;;;;23.90;40.90;;;;;;492097;242;1244;-74
2022/10/23 07:03:20;;;;;;;;;;;23.90;41.00;;;;;;492048;242;1301;-74
2022/10/23 07:05:21;;;;;;;;;;;24.00;41.00;;;;;;492129;242;1277;-74
2022/10/23 07:07:23;;;;;;;;;;;23.90;41.00;;;;;;492039;242;2164;-74
2022/10/23 07:09:24;;;;;;;;;;;24.00;41.10;;;;;;492067;242;1150;-74
2022/10/23 07:11:26;;;;;;;;;;;24.00;41.00;;;;;;492108;242;1282;-74
2022/10/23 07:13:27;;;;;;;;;;;24.00;41.10;;;;;;492073;242;1247;-74
2022/10/23 07:15:28;;;;;;;;;;;24.00;41.00;;;;;;492151;242;1222;-74
2022/10/23 07:17:29;;;;;;;;;;;24.00;41.00;;;;;;491933;242;1206;-74
2022/10/23 07:19:31;;;;;;;;;;;24.10;41.10;;;;;;492088;242;1154;-74
2022/10/23 07:21:33;;;;;;;;;;;24.10;41.10;;;;;;491924;242;1241;-74
2022/10/23 07:23:33;;;;;;;;;;;24.10;41.10;;;;;;492154;242;1503;-74
2022/10/23 07:25:35;;;;;;;;;;;24.00;41.10;;;;;;492068;242;1136;-74
2022/10/23 07:27:36;;;;;;;;;;;24.00;41.20;;;;;;492020;242;2204;-74
2022/10/23 07:29:38;;;;;;;;;;;24.00;41.30;;;;;;492101;242;1156;-74
2022/10/23 07:31:39;;;;;;;;;;;24.00;41.30;;;;;;492039;242;1290;-74
2022/10/23 07:33:40;;;;;;;;;;;24.00;41.30;;;;;;492223;242;1104;-74
2022/10/23 07:35:41;;;;;;;;;;;24.00;41.40;;;;;;492121;242;1145;-74
2022/10/23 07:37:43;;;;;;;;;;;24.10;41.30;;;;;;492110;242;1202;-74
2022/10/23 07:39:44;;;;;;;;;;;24.10;41.40;;;;;;492146;242;1235;-74
2022/10/23 07:41:45;;;;;;;;;;;24.10;41.50;;;;;;492176;242;1149;-74
2022/10/23 07:43:47;;;;;;;;;;;24.00;41.50;;;;;;492157;242;1120;-74
2022/10/23 07:45:48;;;;;;;;;;;24.10;41.60;;;;;;492123;242;1140;-74
2022/10/23 07:47:50;;;;;;;;;;;24.10;41.60;;;;;;492142;242;2191;-74
2022/10/23 07:49:51;;;;;;;;;;;24.10;41.60;;;;;;492172;242;1128;-74
2022/10/23 07:51:53;;;;;;;;;;;24.10;41.60;;;;;;492099;242;1156;-74
2022/10/23 07:53:54;;;;;;;;;;;24.20;41.70;;;;;;492120;242;1177;-74
2022/10/23 07:55:55;;;;;;;;;;;24.10;41.60;;;;;;492138;242;1183;-73
2022/10/23 07:57:56;;;;;;;;;;;24.10;41.70;;;;;;492182;242;1233;-74
2022/10/23 07:59:58;;;;;;;;;;;24.20;41.70;;;;;;492256;242;1160;-74
2022/10/23 08:01:59;;;;;;;;;;;24.20;41.70;;;;;;492156;242;1240;-74
2022/10/23 08:04:01;;;;;;;;;;;24.20;41.90;;;;;;492238;242;1107;-74
2022/10/23 08:06:02;;;;;;;;;;;24.20;42.00;;;;;;492215;242;1135;-74
2022/10/23 08:08:03;;;;;;;;;;;24.10;42.10;;;;;;492135;242;2180;-74
2022/10/23 08:10:04;;;;;;;;;;;24.20;42.20;;;;;;492228;242;1257;-74
2022/10/23 08:12:06;;;;;;;;;;;24.10;42.30;;;;;;492157;242;1165;-74
2022/10/23 08:14:07;;;;;;;;;;;24.10;42.30;;;;;;492264;242;1190;-74
2022/10/23 08:16:08;;;;;;;;;;;24.20;42.40;;;;;;492225;242;1136;-74
2022/10/23 08:18:10;;;;;;;;;;;24.10;42.40;;;;;;492183;242;1257;-74
2022/10/23 08:20:12;;;;;;;;;;;24.10;42.50;;;;;;492176;242;1122;-74
2022/10/23 08:22:13;;;;;;;;;;;24.10;42.60;;;;;;492138;242;1218;-74
2022/10/23 08:24:14;;;;;;;;;;;24.20;42.60;;;;;;492187;242;1178;-74
2022/10/23 08:26:16;;;;;;;;;;;24.20;42.60;;;;;;492216;242;1134;-74
2022/10/23 08:28:17;;;;;;;;;;;24.20;42.70;;;;;;492178;242;2180;-74
2022/10/23 08:30:18;;;;;;;;;;;24.10;42.80;;;;;;492242;242;1144;-74
2022/10/23 08:32:20;;;;;;;;;;;24.20;42.90;;;;;;492198;242;1138;-74
2022/10/23 08:34:21;;;;;;;;;;;24.10;42.90;;;;;;492200;242;1158;-74
2022/10/23 08:36:22;;;;;;;;;;;24.10;43.00;;;;;;492177;242;1155;-74
2022/10/23 08:38:24;;;;;;;;;;;24.10;43.10;;;;;;492207;242;1203;-74
2022/10/23 08:40:25;;;;;;;;;;;24.20;43.10;;;;;;492215;242;1137;-74
2022/10/23 08:42:26;;;;;;;;;;;24.20;43.10;;;;;;492226;242;1213;-74
2022/10/23 08:44:28;;;;;;;;;;;24.20;43.20;;;;;;492200;242;1252;-74
2022/10/23 08:46:29;;;;;;;;;;;24.20;43.30;;;;;;492218;242;2167;-74
2022/10/23 08:48:30;;;;;;;;;;;24.20;43.40;;;;;;492131;242;1128;-73
2022/10/23 08:50:32;;;;;;;;;;;24.20;43.40;;;;;;492148;242;1184;-73
2022/10/23 08:52:33;;;;;;;;;;;24.20;43.40;;;;;;492080;242;1155;-73
2022/10/23 08:54:34;;;;;;;;;;;24.20;43.40;;;;;;492170;242;1250;-74
2022/10/23 08:56:36;;;;;;;;;;;24.20;43.50;;;;;;492066;242;1194;-74
2022/10/23 08:58:37;;;;;;;;;;;24.20;43.60;;;;;;492165;242;1190;-74
2022/10/23 09:00:38;;;;;;;;;;;24.20;43.60;;;;;;492096;242;1315;-74
2022/10/23 09:02:40;;;;;;;;;;;24.20;43.60;;;;;;492130;242;1180;-74
2022/10/23 09:04:41;;;;;;;;;;;24.30;43.60;;;;;;492214;242;1257;-74
2022/10/23 09:06:42;;;;;;;;;;;24.20;43.70;;;;;;492130;242;2192;-74
2022/10/23 09:08:44;;;;;;;;;;;24.20;43.70;;;;;;492127;242;1296;-74
2022/10/23 09:10:45;;;;;;;;;;;24.20;43.70;;;;;;492177;242;1216;-74
2022/10/23 09:12:47;;;;;;;;;;;24.20;43.80;;;;;;492155;242;1137;-74
2022/10/23 09:14:48;;;;;;;;;;;24.20;43.80;;;;;;492168;242;1204;-74
2022/10/23 09:16:49;;;;;;;;;;;24.20;43.80;;;;;;492196;242;1166;-74
2022/10/23 09:18:50;;;;;;;;;;;24.20;43.80;;;;;;492200;242;1273;-74
2022/10/23 09:20:52;;;;;;;;;;;24.10;43.90;;;;;;492179;242;1218;-74
2022/10/23 09:22:53;;;;;;;;;;;24.20;44.10;;;;;;492081;242;1366;-74
2022/10/23 09:24:54;;;;;;;;;;;24.20;44.10;;;;;;492119;242;1139;-74
2022/10/23 09:26:56;;;;;;;;;;;24.10;44.10;;;;;;492166;242;2191;-74
2022/10/23 09:28:57;;;;;;;;;;;24.20;44.00;;;;;;492180;242;1169;-74
2022/10/23 09:30:58;;;;;;;;;;;24.20;44.00;;;;;;492160;242;1244;-74
2022/10/23 09:33:00;;;;;;;;;;;24.20;44.10;;;;;;492144;242;1186;-74
2022/10/23 09:35:01;;;;;;;;;;;24.20;44.20;;;;;;492094;242;1151;-74
2022/10/23 09:37:02;;;;;;;;;;;24.30;44.10;;;;;;492172;242;1247;-74
2022/10/23 09:39:04;;;;;;;;;;;24.20;44.10;;;;;;492268;242;1166;-74
2022/10/23 09:41:05;;;;;;;;;;;24.20;44.20;;;;;;492157;242;1276;-74
2022/10/23 09:43:06;;;;;;;;;;;24.20;44.20;;;;;;492195;242;1146;-74
2022/10/23 09:45:08;;;;;;;;;;;24.20;44.30;;;;;;492181;242;1152;-74
2022/10/23 09:47:10;;;;;;;;;;;24.20;44.30;;;;;;492180;242;2136;-74
2022/10/23 09:49:10;;;;;;;;;;;24.20;44.40;;;;;;492222;242;1240;-74
2022/10/23 09:51:12;;;;;;;;;;;24.20;44.30;;;;;;492117;242;1208;-74
2022/10/23 09:53:13;;;;;;;;;;;24.30;44.30;;;;;;492206;242;1167;-74
2022/10/23 09:55:14;;;;;;;;;;;24.20;44.50;;;;;;492186;242;1218;-74
2022/10/23 09:57:16;;;;;;;;;;;24.20;44.50;;;;;;492163;242;1141;-74
2022/10/23 09:59:17;;;;;;;;;;;24.20;44.60;;;;;;492158;242;1200;-74
2022/10/23 10:01:18;;;;;;;;;;;24.20;44.60;;;;;;492101;242;1235;-74
2022/10/23 10:03:20;;;;;;;;;;;24.10;44.70;;;;;;492120;242;1150;-74
2022/10/23 10:05:21;;;;;;;;;;;24.10;44.80;;;;;;492160;242;1266;-74
2022/10/23 10:07:22;;;;;;;;;;;24.20;44.90;;;;;;492135;242;2187;-74
2022/10/23 10:09:24;;;;;;;;;;;24.20;44.80;;;;;;492190;242;1491;-74
2022/10/23 10:11:26;;;;;;;;;;;24.20;44.70;;;;;;492085;242;1157;-74
2022/10/23 10:13:26;;;;;;;;;;;24.30;44.70;;;;;;492223;242;1486;-73
2022/10/23 10:15:28;;;;;;;;;;;24.30;44.60;;;;;;492159;242;1134;-73
2022/10/23 10:17:29;;;;;;;;;;;24.30;44.70;;;;;;492185;242;1311;-74
2022/10/23 10:19:30;;;;;;;;;;;24.40;44.70;;;;;;492153;242;1153;-74
2022/10/23 10:21:32;;;;;;;;;;;24.30;44.60;;;;;;492203;242;1226;-74
2022/10/23 10:23:33;;;;;;;;;;;24.40;44.70;;;;;;492190;242;1209;-74
2022/10/23 10:25:34;;;;;;;;;;;24.40;44.60;;;;;;492180;242;1182;-74
2022/10/23 10:27:36;;;;;;;;;;;24.40;44.60;;;;;;492126;242;2188;-74
2022/10/23 10:29:37;;;;;;;;;;;24.40;44.70;;;;;;492162;242;1197;-74
2022/10/23 10:31:38;;;;;;;;;;;24.40;44.70;;;;;;492144;242;1104;-74
2022/10/23 10:33:40;;;;;;;;;;;24.40;44.70;;;;;;492164;242;1193;-74
2022/10/23 10:35:41;;;;;;;;;;;24.30;45.00;;;;;;492137;242;1216;-74
2022/10/23 10:37:42;;;;;;;;;;;24.30;45.00;;;;;;492122;242;1108;-74
2022/10/23 10:39:44;;;;;;;;;;;24.30;45.10;;;;;;492213;242;1333;-74
2022/10/23 10:41:45;;;;;;;;;;;24.30;45.10;;;;;;492133;242;1293;-74
2022/10/23 10:43:46;;;;;;;;;;;24.20;45.30;;;;;;492201;242;1199;-74
2022/10/23 10:45:48;;;;;;;;;;;24.20;45.30;;;;;;492158;242;1272;-74
2022/10/23 10:47:50;;;;;;;;;;;24.20;45.40;;;;;;492135;242;2183;-74
2022/10/23 10:49:51;;;;;;;;;;;24.10;45.50;;;;;;492192;242;1378;-74
2022/10/23 10:51:52;;;;;;;;;;;24.10;45.50;;;;;;492096;242;1234;-74
2022/10/23 10:53:53;;;;;;;;;;;24.10;45.50;;;;;;492271;242;1175;-74
2022/10/23 10:55:55;;;;;;;;;;;24.10;45.60;;;;;;492125;242;1125;-74
2022/10/23 10:57:56;;;;;;;;;;;24.10;45.60;;;;;;492184;242;1147;-74
2022/10/23 10:59:58;;;;;;;;;;;24.10;45.70;;;;;;492159;242;1218;-74
2022/10/23 11:01:59;;;;;;;;;;;24.00;45.70;;;;;;492167;242;1267;-74
2022/10/23 11:04:00;;;;;;;;;;;24.00;45.80;;;;;;492163;242;1170;-74
2022/10/23 11:06:02;;;;;;;;;;;24.00;45.80;;;;;;492108;242;1248;-74
2022/10/23 11:08:03;;;;;;;;;;;24.00;45.80;;;;;;492079;242;2139;-74
2022/10/23 11:10:04;;;;;;;;;;;24.00;45.80;;;;;;492156;242;1362;-74
2022/10/23 11:12:06;;;;;;;;;;;24.00;45.90;;;;;;492118;242;1267;-74
2022/10/23 11:14:07;;;;;;;;;;;24.00;45.90;;;;;;492269;242;1240;-74
2022/10/23 11:16:08;;;;;;;;;;;24.00;46.00;;;;;;492161;242;1212;-74
2022/10/23 11:18:10;;;;;;;;;;;24.00;45.90;;;;;;492170;242;1162;-74
2022/10/23 11:20:11;;;;;;;;;;;24.00;45.90;;;;;;492205;242;1194;-74
2022/10/23 11:22:12;;;;;;;;;;;23.90;45.90;;;;;;492150;242;1221;-74
2022/10/23 11:24:14;;;;;;;;;;;24.00;45.90;;;;;;492207;242;1231;-74
2022/10/23 11:26:15;;;;;;;;;;;24.00;45.90;;;;;;492164;242;1197;-74
2022/10/23 11:28:16;;;;;;;;;;;24.00;45.80;;;;;;492156;242;2199;-74
2022/10/23 11:30:18;;;;;;;;;;;24.00;46.00;;;;;;492197;242;1173;-74
2022/10/23 11:32:19;;;;;;;;;;;24.00;46.00;;;;;;492143;242;1204;-74
2022/10/23 11:34:20;;;;;;;;;;;24.00;46.00;;;;;;492183;242;1253;-73
2022/10/23 11:36:22;;;;;;;;;;;24.00;45.90;;;;;;492148;242;1265;-74
2022/10/23 11:38:23;;;;;;;;;;;24.00;45.90;;;;;;492221;242;1147;-74
2022/10/23 11:40:24;;;;;;;;;;;24.00;45.90;;;;;;492165;242;1306;-74
2022/10/23 11:42:26;;;;;;;;;;;24.00;45.80;;;;;;492185;242;1192;-74
2022/10/23 11:44:27;;;;;;;;;;;24.00;45.80;;;;;;492178;242;1183;-74
2022/10/23 11:46:28;;;;;;;;;;;24.00;45.80;;;;;;492186;242;1177;-74
2022/10/23 11:48:30;;;;;;;;;;;24.00;45.80;;;;;;492165;242;2192;-74
2022/10/23 11:50:31;;;;;;;;;;;24.00;45.90;;;;;;492187;242;1133;-74
2022/10/23 11:52:32;;;;;;;;;;;23.90;46.00;;;;;;492161;242;1161;-74
2022/10/23 11:54:34;;;;;;;;;;;23.90;46.10;;;;;;492226;242;1128;-74
2022/10/23 11:56:35;;;;;;;;;;;24.00;46.10;;;;;;492189;242;1262;-74